Time;durP1;ratioP1;P1;durP2;ratioP2;P2;SDS_P1;SDS_P2;PMS_P1;PMS_P2;Temp;Humidity;BMP_temperature;BMP_pressure;BME280_temperature;BME280_humidity;BME280_pressure;Samples;Min_cycle;Max_cycle;Signal;HPM_P1;HPM_P2
2022/11/18 00:02:19;;;;;;;4.75;3.95;;;7.30;99.90;;;;;;5076642;28;20036;-73
2022/11/18 00:04:44;;;;;;;7.05;3.75;;;7.30;99.90;;;;;;5075086;28;20044;-74
2022/11/18 00:07:10;;;;;;;7.65;3.90;;;7.30;99.90;;;;;;5074280;28;20031;-73
2022/11/18 00:09:35;;;;;;;6.35;3.88;;;7.30;99.90;;;;;;5074989;28;20107;-73
2022/11/18 00:14:45;;;;;;;6.07;3.83;;;7.20;99.90;;;;;;5074720;28;20445;-73
2022/11/18 00:17:11;;;;;;;4.30;3.88;;;7.20;99.90;;;;;;5075235;28;20108;-73
2022/11/18 00:19:38;;;;;;;4.88;3.90;;;7.10;99.90;;;;;;5074038;28;20064;-73
2022/11/18 00:22:06;;;;;;;4.25;3.58;;;7.20;99.90;;;;;;5074917;28;20028;-72
2022/11/18 00:24:32;;;;;;;8.55;3.90;;;7.20;99.90;;;;;;5074334;28;20032;-73
2022/11/18 00:26:58;;;;;;;8.48;3.75;;;7.10;99.90;;;;;;5074052;28;20448;-72
2022/11/18 00:29:26;;;;;;;6.10;3.50;;;7.10;99.90;;;;;;5074505;28;20046;-72
2022/11/18 00:31:53;;;;;;;7.50;3.90;;;7.10;99.90;;;;;;5074353;28;20443;-73
2022/11/18 00:34:18;;;;;;;4.20;3.80;;;7.10;99.90;;;;;;5073389;28;20083;-72
2022/11/18 00:36:45;;;;;;;6.45;3.40;;;7.10;99.90;;;;;;5073867;28;20036;-73
2022/11/18 00:39:12;;;;;;;4.88;3.30;;;7.10;99.90;;;;;;5074016;28;20480;-73
2022/11/18 00:44:22;;;;;;;5.82;3.70;;;7.00;99.90;;;;;;5073609;28;20452;-72
2022/11/18 00:46:48;;;;;;;4.70;3.47;;;7.00;99.90;;;;;;5073590;28;20048;-74
2022/11/18 00:49:13;;;;;;;5.40;3.67;;;7.00;99.90;;;;;;5073327;28;20082;-72
2022/11/18 00:51:39;;;;;;;3.50;3.20;;;7.00;99.90;;;;;;5073945;28;20054;-72
2022/11/18 00:54:05;;;;;;;4.75;3.30;;;7.00;99.90;;;;;;5073531;28;20021;-74
2022/11/18 00:56:31;;;;;;;5.72;2.90;;;7.20;99.90;;;;;;5058789;28;20025;-73
2022/11/18 00:58:56;;;;;;;3.97;3.03;;;7.00;99.90;;;;;;5074043;28;20029;-73
2022/11/18 01:01:22;;;;;;;4.72;3.03;;;6.90;99.90;;;;;;5074014;28;20488;-73
2022/11/18 01:03:51;;;;;;;6.65;3.53;;;6.90;99.90;;;;;;5073038;28;20029;-73
2022/11/18 01:06:16;;;;;;;4.80;3.00;;;6.90;99.90;;;;;;5073883;28;20123;-73
2022/11/18 01:08:42;;;;;;;6.38;3.58;;;6.90;99.90;;;;;;5073057;28;20116;-73
2022/11/18 01:13:54;;;;;;;7.63;3.30;;;6.90;99.90;;;;;;5063060;28;20470;-72
2022/11/18 01:16:25;;;;;;;7.75;3.42;;;6.90;99.90;;;;;;5072381;28;20017;-72
2022/11/18 01:18:51;;;;;;;4.13;2.95;;;6.90;99.90;;;;;;5073605;28;20033;-74
2022/11/18 01:21:16;;;;;;;6.40;2.90;;;6.90;99.90;;;;;;5073377;28;20469;-73
2022/11/18 01:23:43;;;;;;;6.70;3.17;;;6.80;99.90;;;;;;5072040;28;20064;-73
2022/11/18 01:26:11;;;;;;;6.63;3.38;;;6.90;99.90;;;;;;5073157;28;20388;-72
2022/11/18 01:28:37;;;;;;;7.40;3.67;;;6.80;99.90;;;;;;5072704;28;20023;-72
2022/11/18 01:31:14;;;;;;;7.18;3.50;;;6.80;99.90;;;;;;5072635;28;20029;-73
2022/11/18 01:33:41;;;;;;;5.22;3.80;;;6.80;99.90;;;;;;5072940;28;20042;-72
2022/11/18 01:36:15;;;;;;;6.57;3.45;;;6.80;99.90;;;;;;5073319;28;20045;-73
2022/11/18 01:38:41;;;;;;;4.72;3.40;;;6.80;99.90;;;;;;5072994;28;20423;-73
2022/11/18 01:41:06;;;;;;;7.45;3.72;;;6.80;99.90;;;;;;5073336;28;20035;-73
2022/11/18 01:43:52;;;;;;;9.35;4.05;;;6.80;99.90;;;;;;5057294;28;20041;-72
2022/11/18 01:46:19;;;;;;;8.50;3.83;;;6.80;99.90;;;;;;5053318;28;20021;-73
2022/11/18 01:48:47;;;;;;;6.78;3.70;;;6.80;99.90;;;;;;5058472;28;20052;-76
2022/11/18 01:51:20;;;;;;;11.27;3.70;;;6.80;99.90;;;;;;5069584;28;20032;-72
2022/11/18 01:53:54;;;;;;;7.45;3.90;;;6.80;99.90;;;;;;5061983;28;20035;-73
2022/11/18 01:56:24;;;;;;;4.95;3.28;;;6.70;99.90;;;;;;5072428;28;21612;-72
2022/11/18 01:58:57;;;;;;;9.43;4.45;;;6.80;99.90;;;;;;5071701;28;20025;-73
2022/11/18 02:01:23;;;;;;;6.95;3.90;;;6.70;99.90;;;;;;5058191;28;20038;-74
2022/11/18 02:03:50;;;;;;;6.45;4.18;;;6.70;99.90;;;;;;5072348;28;20037;-73
2022/11/18 02:06:16;;;;;;;8.60;4.00;;;6.70;99.90;;;;;;5071726;28;20076;-73
2022/11/18 02:08:42;;;;;;;7.63;3.95;;;6.70;99.90;;;;;;5072152;28;20032;-73
2022/11/18 02:14:01;;;;;;;8.57;4.03;;;6.70;99.90;;;;;;5072241;28;20066;-73
2022/11/18 02:16:47;;;;;;;4.63;3.90;;;6.70;99.90;;;;;;5072538;28;20271;-73
2022/11/18 02:19:24;;;;;;;7.22;4.45;;;6.70;99.90;;;;;;5072114;28;20343;-73
2022/11/18 02:22:05;;;;;;;7.20;4.13;;;6.70;99.90;;;;;;5072617;28;20020;-73
2022/11/18 02:25:07;;;;;;;6.72;4.50;;;6.70;99.90;;;;;;5072477;28;20388;-72
2022/11/18 02:27:59;;;;;;;8.13;4.15;;;6.50;99.90;;;;;;5058912;28;20066;-74
2022/11/18 02:30:27;;;;;;;7.35;4.70;;;6.80;99.90;;;;;;5072400;28;20036;-74
2022/11/18 02:32:55;;;;;;;10.05;4.82;;;6.80;99.90;;;;;;5072558;28;20058;-74
2022/11/18 02:35:30;;;;;;;7.18;4.60;;;6.80;99.90;;;;;;5071789;28;20095;-73
2022/11/18 02:38:05;;;;;;;8.07;4.85;;;6.90;99.90;;;;;;5073010;28;20086;-73
2022/11/18 02:40:35;;;;;;;7.80;4.32;;;6.90;99.90;;;;;;5071121;28;20039;-73
2022/11/18 02:43:12;;;;;;;9.18;4.80;;;6.90;99.90;;;;;;5072361;28;20024;-73
2022/11/18 02:45:43;;;;;;;7.95;4.43;;;7.00;99.90;;;;;;5072007;28;20036;-74
2022/11/18 02:48:09;;;;;;;;;;;7.00;99.90;;;;;;5073362;28;20029;-74
2022/11/18 02:50:38;;;;;;;6.85;3.70;;;7.00;99.90;;;;;;5071973;28;20271;-74
2022/11/18 02:53:07;;;;;;;7.65;4.10;;;6.90;99.90;;;;;;5072376;28;20028;-73
2022/11/18 02:55:35;;;;;;;11.77;4.60;;;7.00;99.90;;;;;;5071006;28;20472;-73
2022/11/18 02:58:02;;;;;;;6.57;4.18;;;6.90;99.90;;;;;;5071728;28;20104;-73
2022/11/18 03:00:30;;;;;;;7.15;4.32;;;6.90;99.90;;;;;;5072059;28;20395;-73
2022/11/18 03:02:59;;;;;;;8.48;4.10;;;6.90;99.90;;;;;;5071998;28;20029;-73
2022/11/18 03:05:45;;;;;;;7.70;4.55;;;6.90;99.90;;;;;;5072513;28;20041;-73
2022/11/18 03:08:21;;;;;;;8.10;4.65;;;6.80;99.90;;;;;;5074808;28;20016;-72
2022/11/18 03:11:21;;;;;;;7.57;4.32;;;6.80;99.90;;;;;;5075803;28;20067;-73
2022/11/18 03:14:01;;;;;;;8.57;4.78;;;6.80;99.90;;;;;;5064312;28;20037;-73
2022/11/18 03:16:43;;;;;;;8.48;4.65;;;6.80;99.90;;;;;;5074544;28;20475;-72
2022/11/18 03:19:31;;;;;;;11.15;5.40;;;6.70;99.90;;;;;;5075537;28;20039;-73
2022/11/18 03:22:12;;;;;;;10.25;4.88;;;6.70;99.90;;;;;;5075450;28;20017;-72
2022/11/18 03:24:44;;;;;;;12.07;4.72;;;6.70;99.90;;;;;;5075002;28;20044;-73
2022/11/18 03:27:26;;;;;;;8.50;4.47;;;6.70;99.90;;;;;;5075362;28;20024;-73
2022/11/18 03:30:00;;;;;;;10.07;4.38;;;6.60;99.90;;;;;;5074892;28;20029;-74
2022/11/18 03:32:29;;;;;;;7.40;4.70;;;6.70;99.90;;;;;;5075298;28;20028;-73
2022/11/18 03:35:04;;;;;;;9.80;4.88;;;6.60;99.90;;;;;;5074913;28;20408;-74
2022/11/18 03:37:33;;;;;;;6.93;4.80;;;6.70;99.90;;;;;;5074558;28;20017;-72
2022/11/18 03:40:20;;;;;;;6.50;5.10;;;6.70;99.90;;;;;;5075176;28;20111;-74
2022/11/18 03:42:51;;;;;;;7.55;5.03;;;6.60;99.90;;;;;;5075399;28;20370;-74
2022/11/18 03:45:46;;;;;;;9.38;4.60;;;6.50;99.90;;;;;;5074110;28;20498;-74
2022/11/18 03:48:17;;;;;;;8.40;5.78;;;6.60;99.90;;;;;;5062522;28;20056;-74
2022/11/18 03:50:59;;;;;;;6.53;5.35;;;6.60;99.90;;;;;;5073660;28;20094;-74
2022/11/18 03:53:27;;;;;;;9.25;5.53;;;6.60;99.90;;;;;;5063748;28;20032;-73
2022/11/18 03:56:01;;;;;;;6.30;5.05;;;6.50;99.90;;;;;;5074792;28;20035;-72
2022/11/18 03:58:58;;;;;;;11.05;5.30;;;6.50;99.90;;;;;;5074351;28;20028;-73
2022/11/18 04:01:33;;;;;;;9.05;5.68;;;6.40;99.90;;;;;;5071339;28;20057;-74
2022/11/18 04:03:59;;;;;;;10.02;5.80;;;6.40;99.90;;;;;;5074954;28;20064;-73
2022/11/18 04:06:36;;;;;;;11.25;5.18;;;6.40;99.90;;;;;;5073682;28;20477;-73
2022/11/18 04:09:12;;;;;;;8.70;5.68;;;6.40;99.90;;;;;;5075226;28;20060;-73
2022/11/18 04:12:03;;;;;;;8.07;6.10;;;5.50;99.90;;;;;;5074044;28;20035;-73
2022/11/18 04:14:51;;;;;;;8.00;5.60;;;6.30;99.90;;;;;;5074337;28;20017;-72
2022/11/18 04:17:20;;;;;;;8.02;5.88;;;6.30;99.90;;;;;;5074106;28;20040;-73
2022/11/18 04:19:46;;;;;;;8.05;5.45;;;6.30;99.90;;;;;;5073703;28;20396;-74
2022/11/18 04:22:12;;;;;;;7.75;5.80;;;6.30;99.90;;;;;;5075433;28;20020;-73
2022/11/18 04:24:38;;;;;;;13.35;6.63;;;6.30;99.90;;;;;;5074503;28;20186;-73
2022/11/18 04:27:07;;;;;;;9.60;6.15;;;6.40;99.90;;;;;;5059739;28;20023;-73
2022/11/18 04:29:33;;;;;;;7.65;5.07;;;6.30;99.90;;;;;;5074308;28;20034;-73
2022/11/18 04:32:00;;;;;;;5.93;5.30;;;6.30;99.90;;;;;;5074853;28;20020;-72
2022/11/18 04:34:26;;;;;;;10.15;5.45;;;6.30;99.90;;;;;;5073760;28;20072;-73
2022/11/18 04:36:51;;;;;;;10.07;4.72;;;6.30;99.90;;;;;;5074972;28;20094;-74
2022/11/18 04:39:17;;;;;;;7.50;5.68;;;6.40;99.90;;;;;;5074277;28;20111;-73
2022/11/18 04:41:56;;;;;;;8.05;5.85;;;6.40;99.90;;;;;;5073683;28;20031;-72
2022/11/18 04:44:28;;;;;;;13.68;5.65;;;6.30;99.90;;;;;;5074063;28;20361;-75
2022/11/18 04:46:55;;;;;;;11.98;5.68;;;6.30;99.90;;;;;;5073467;28;20059;-74
2022/11/18 04:49:22;;;;;;;14.13;6.28;;;6.30;99.90;;;;;;5074264;28;20055;-73
2022/11/18 04:51:48;;;;;;;10.75;5.45;;;6.30;99.90;;;;;;5064251;28;20054;-73
2022/11/18 04:54:14;;;;;;;6.78;4.88;;;6.30;99.90;;;;;;5068999;28;20024;-74
2022/11/18 04:56:42;;;;;;;8.52;5.07;;;6.30;99.90;;;;;;5073787;28;20071;-73
2022/11/18 04:59:08;;;;;;;10.20;5.40;;;6.40;99.90;;;;;;5074238;28;20023;-73
2022/11/18 05:01:34;;;;;;;6.88;4.95;;;6.30;99.90;;;;;;5073141;28;20102;-74
2022/11/18 05:04:01;;;;;;;10.65;5.35;;;6.30;99.90;;;;;;5074007;28;20522;-73
2022/11/18 05:06:27;;;;;;;7.03;5.10;;;6.30;99.90;;;;;;5073610;28;20020;-74
2022/11/18 05:08:53;;;;;;;8.38;5.22;;;6.40;99.90;;;;;;5073223;28;20361;-74
2022/11/18 05:14:03;;;;;;;8.52;4.97;;;6.40;99.90;;;;;;5073981;28;20028;-72
2022/11/18 05:16:28;;;;;;;11.45;5.03;;;6.40;99.90;;;;;;5059047;28;20036;-74
2022/11/18 05:18:54;;;;;;;10.73;5.85;;;6.40;99.90;;;;;;5073931;28;20039;-73
2022/11/18 05:21:20;;;;;;;6.90;4.38;;;6.40;99.90;;;;;;5074161;28;20476;-73
2022/11/18 05:23:45;;;;;;;10.25;5.13;;;6.40;99.90;;;;;;5072550;28;20039;-74
2022/11/18 05:26:11;;;;;;;12.77;4.88;;;6.40;99.90;;;;;;5073945;28;20017;-73
2022/11/18 05:28:37;;;;;;;10.10;4.90;;;6.40;99.90;;;;;;5073120;28;20024;-73
2022/11/18 05:31:10;;;;;;;7.97;4.40;;;6.40;99.90;;;;;;5072321;28;20457;-74
2022/11/18 05:33:36;;;;;;;6.40;4.60;;;6.40;99.90;;;;;;5073368;28;20031;-73
2022/11/18 05:36:10;;;;;;;8.00;4.80;;;6.30;99.90;;;;;;5072281;28;20041;-73
2022/11/18 05:38:36;;;;;;;6.53;4.40;;;6.30;99.90;;;;;;5073106;28;20078;-74
2022/11/18 05:41:03;;;;;;;10.32;4.65;;;6.30;99.90;;;;;;5073609;28;20049;-73
2022/11/18 05:43:30;;;;;;;11.02;5.22;;;6.20;99.90;;;;;;5072230;28;20086;-72
2022/11/18 05:45:56;;;;;;;9.10;4.97;;;6.20;99.90;;;;;;5073282;28;20076;-74
2022/11/18 05:48:22;;;;;;;7.30;4.38;;;6.10;99.90;;;;;;5073164;28;20107;-73
2022/11/18 05:50:50;;;;;;;7.18;4.20;;;6.10;99.90;;;;;;5070861;28;20439;-74
2022/11/18 05:53:18;;;;;;;7.50;4.80;;;6.10;99.90;;;;;;5060890;28;20380;-75
2022/11/18 05:56:05;;;;;;;7.65;5.07;;;6.10;99.90;;;;;;5072794;28;20498;-73
2022/11/18 05:58:30;;;;;;;6.05;4.75;;;6.10;99.90;;;;;;5060928;28;20016;-74
2022/11/18 06:01:02;;;;;;;9.13;4.78;;;6.00;99.90;;;;;;5071759;28;20476;-73
2022/11/18 06:03:30;;;;;;;14.80;4.30;;;6.10;99.90;;;;;;5073616;28;20020;-74
2022/11/18 06:05:58;;;;;;;8.20;5.32;;;6.00;99.90;;;;;;5064332;28;20021;-73
2022/11/18 06:08:30;;;;;;;4.85;4.45;;;6.10;99.90;;;;;;5053016;28;20052;-73
2022/11/18 06:10:56;;;;;;;7.43;5.03;;;6.00;99.90;;;;;;5054375;28;20036;-74
2022/11/18 06:13:30;;;;;;;11.45;4.72;;;6.00;99.90;;;;;;5052700;28;20468;-73
2022/11/18 06:16:05;;;;;;;10.32;5.10;;;6.00;99.90;;;;;;5056902;28;20099;-73
2022/11/18 06:18:33;;;;;;;9.68;5.13;;;6.00;99.90;;;;;;5054343;28;20487;-74
2022/11/18 06:21:04;;;;;;;5.95;4.88;;;6.00;99.90;;;;;;5053418;28;20546;-73
2022/11/18 06:23:33;;;;;;;10.80;4.80;;;6.00;99.90;;;;;;5053674;28;20036;-74
2022/11/18 06:25:59;;;;;;;9.05;4.55;;;6.00;99.90;;;;;;5054715;28;20032;-74
2022/11/18 06:28:25;;;;;;;11.40;5.28;;;5.90;99.90;;;;;;5053113;28;20024;-73
2022/11/18 06:30:51;;;;;;;10.00;5.15;;;5.90;99.90;;;;;;5052962;28;20428;-73
2022/11/18 06:33:16;;;;;;;4.90;4.25;;;5.90;99.90;;;;;;5053045;28;20025;-73
2022/11/18 06:35:42;;;;;;;6.63;4.78;;;6.00;99.90;;;;;;5057220;28;20044;-74
2022/11/18 06:38:08;;;;;;;8.73;4.85;;;5.90;99.90;;;;;;5051660;28;20142;-73
2022/11/18 06:40:35;;;;;;;19.95;5.78;;;5.90;99.90;;;;;;5055710;28;20120;-73
2022/11/18 06:48:36;;;;;;;8.25;4.93;;;5.90;99.90;;;;;;5076125;28;20078;-74
2022/11/18 06:51:05;;;;;;;14.82;5.00;;;5.90;99.90;;;;;;5072747;28;20021;-74
2022/11/18 06:53:30;;;;;;;7.43;4.55;;;5.90;99.90;;;;;;5065755;28;20024;-74
2022/11/18 06:55:56;;;;;;;11.32;5.28;;;5.90;99.90;;;;;;5075875;28;20021;-73
2022/11/18 06:58:21;;;;;;;12.55;6.38;;;5.90;99.90;;;;;;5076253;28;20029;-73
2022/11/18 07:00:47;;;;;;;13.02;5.45;;;5.90;99.90;;;;;;5074530;28;20025;-73
2022/11/18 07:03:13;;;;;;;8.77;4.70;;;5.90;99.90;;;;;;5076192;28;20023;-73
2022/11/18 07:05:38;;;;;;;7.10;4.53;;;5.90;99.90;;;;;;5075882;28;20071;-73
2022/11/18 07:08:04;;;;;;;6.35;4.80;;;5.90;99.90;;;;;;5074703;28;20272;-73
2022/11/18 07:10:29;;;;;;;12.02;5.43;;;5.90;99.90;;;;;;5075426;28;20111;-74
2022/11/18 07:12:55;;;;;;;6.13;4.75;;;6.00;99.90;;;;;;5075896;28;20025;-72
2022/11/18 07:15:20;;;;;;;6.75;4.65;;;6.10;99.90;;;;;;5075272;28;20017;-74
2022/11/18 07:17:46;;;;;;;8.88;5.38;;;6.10;99.90;;;;;;5075670;28;20025;-73
2022/11/18 07:20:11;;;;;;;7.97;4.63;;;6.10;99.90;;;;;;5076658;28;20469;-75
2022/11/18 07:22:37;;;;;;;8.40;5.13;;;6.10;99.90;;;;;;5074420;28;20457;-74
2022/11/18 07:25:03;;;;;;;9.32;4.70;;;6.10;99.90;;;;;;5075255;28;20025;-75
2022/11/18 07:27:28;;;;;;;8.02;5.03;;;6.10;99.90;;;;;;5075288;28;20020;-73
2022/11/18 07:29:54;;;;;;;10.48;5.00;;;6.10;99.90;;;;;;5075009;28;20055;-73
2022/11/18 07:32:19;;;;;;;10.60;4.35;;;6.10;99.90;;;;;;5075930;28;20021;-73
2022/11/18 07:34:45;;;;;;;7.70;4.90;;;6.20;99.90;;;;;;5076103;28;20057;-73
2022/11/18 07:37:10;;;;;;;9.02;4.60;;;6.30;99.90;;;;;;5075579;28;20021;-73
2022/11/18 07:39:36;;;;;;;13.90;5.28;;;6.40;99.90;;;;;;5076107;28;20024;-75
2022/11/18 07:42:02;;;;;;;8.52;4.97;;;6.40;99.90;;;;;;5075158;28;20021;-73
2022/11/18 07:44:27;;;;;;;8.32;4.93;;;6.50;99.90;;;;;;5082485;28;20040;-71
2022/11/18 07:46:53;;;;;;;8.80;4.25;;;6.50;99.90;;;;;;5093780;28;20085;-73
2022/11/18 07:49:18;;;;;;;7.28;4.57;;;6.60;99.90;;;;;;5094882;28;20044;-74
2022/11/18 07:51:44;;;;;;;12.20;4.63;;;6.60;99.90;;;;;;5067146;28;20395;-73
2022/11/18 07:54:15;;;;;;;14.20;4.57;;;6.70;99.90;;;;;;5057774;28;20032;-75
2022/11/18 07:56:41;;;;;;;7.00;4.93;;;6.70;99.90;;;;;;5074947;28;20224;-73
2022/11/18 07:59:07;;;;;;;8.68;5.25;;;6.70;99.90;;;;;;5067703;28;20050;-73
2022/11/18 08:01:35;;;;;;;10.18;5.13;;;6.70;99.90;;;;;;5058116;28;20063;-74
2022/11/18 08:04:07;;;;;;;15.80;5.82;;;6.80;99.90;;;;;;5058117;28;20117;-75
2022/11/18 08:06:39;;;;;;;8.15;4.80;;;6.90;99.90;;;;;;5063558;28;20491;-75
2022/11/18 08:09:08;;;;;;;6.50;5.40;;;6.90;99.90;;;;;;5067065;28;20476;-75
2022/11/18 08:11:34;;;;;;;7.35;4.53;;;7.00;99.90;;;;;;5074126;28;20027;-74
2022/11/18 08:14:00;;;;;;;9.90;4.60;;;7.00;99.90;;;;;;5085020;28;20024;-74
2022/11/18 08:16:26;;;;;;;7.63;4.97;;;7.00;99.90;;;;;;5078429;28;20112;-74
2022/11/18 08:18:52;;;;;;;10.40;6.18;;;7.10;99.90;;;;;;5075483;28;20031;-73
2022/11/18 08:21:19;;;;;;;8.73;5.43;;;7.20;99.90;;;;;;5077524;28;20111;-75
2022/11/18 08:23:53;;;;;;;6.97;5.07;;;7.10;99.90;;;;;;5077738;28;20059;-73
2022/11/18 08:26:20;;;;;;;6.45;4.93;;;7.20;99.90;;;;;;5080393;28;20638;-74
2022/11/18 08:28:46;;;;;;;7.63;4.80;;;7.20;99.90;;;;;;5077803;28;20020;-73
2022/11/18 08:31:23;;;;;;;8.38;5.22;;;7.20;99.90;;;;;;5076940;28;20031;-75
2022/11/18 08:33:56;;;;;;;10.85;4.60;;;7.20;99.90;;;;;;5080122;28;20029;-74
2022/11/18 08:36:25;;;;;;;9.75;4.75;;;7.20;99.90;;;;;;5075766;28;20036;-73
2022/11/18 08:38:51;;;;;;;11.13;4.90;;;7.20;99.90;;;;;;5074949;28;20134;-75
2022/11/18 08:41:37;;;;;;;11.80;5.03;;;7.20;99.90;;;;;;5074931;28;20106;-76
2022/11/18 08:44:04;;;;;;;9.85;5.13;;;7.30;99.90;;;;;;5075016;28;20032;-74
2022/11/18 08:46:35;;;;;;;32.88;6.68;;;7.40;99.90;;;;;;5074820;28;20021;-75
2022/11/18 08:49:01;;;;;;;7.50;5.13;;;7.50;99.90;;;;;;5075089;28;20098;-73
2022/11/18 08:51:27;;;;;;;12.00;5.10;;;7.60;99.90;;;;;;5068357;28;20461;-74
2022/11/18 08:53:53;;;;;;;10.13;5.10;;;7.70;99.90;;;;;;5066455;28;20040;-75
2022/11/18 08:56:20;;;;;;;7.38;5.22;;;7.80;99.90;;;;;;5074361;28;20070;-74
2022/11/18 08:58:46;;;;;;;6.68;4.50;;;7.90;99.90;;;;;;5074795;28;20036;-74
2022/11/18 09:01:12;;;;;;;8.93;4.43;;;8.00;99.90;;;;;;5088976;28;20017;-74
2022/11/18 09:03:38;;;;;;;10.55;4.30;;;8.10;99.90;;;;;;5093456;28;20028;-75
2022/11/18 09:06:07;;;;;;;8.40;4.35;;;8.10;99.90;;;;;;5092656;28;20028;-74
2022/11/18 09:08:33;;;;;;;9.88;4.57;;;8.20;99.90;;;;;;5092756;28;20055;-73
2022/11/18 09:11:03;;;;;;;8.52;4.32;;;8.20;99.90;;;;;;5093299;28;20036;-74
2022/11/18 09:13:29;;;;;;;11.88;5.18;;;8.20;99.90;;;;;;5092394;28;20540;-75
2022/11/18 09:15:57;;;;;;;12.98;5.00;;;8.30;99.90;;;;;;5092441;28;20031;-75
2022/11/18 09:18:23;;;;;;;8.52;5.10;;;8.50;99.90;;;;;;5077996;28;20494;-74
2022/11/18 09:20:58;;;;;;;11.65;5.40;;;8.30;99.90;;;;;;5092147;28;20101;-75
2022/11/18 09:23:24;;;;;;;9.35;5.55;;;8.30;99.90;;;;;;5089622;28;20371;-71
2022/11/18 09:26:07;;;;;;;7.75;5.13;;;8.30;99.90;;;;;;5092515;28;20036;-75
2022/11/18 09:28:33;;;;;;;12.27;5.85;;;8.30;99.90;;;;;;5062552;28;20013;-75
2022/11/18 09:31:12;;;;;;;7.78;4.93;;;8.40;99.90;;;;;;5060037;28;20028;-75
2022/11/18 09:33:38;;;;;;;8.07;4.90;;;8.40;99.90;;;;;;5062574;28;20055;-75
2022/11/18 09:36:10;;;;;;;7.30;4.88;;;8.50;99.90;;;;;;5072153;28;20520;-75
2022/11/18 09:38:35;;;;;;;10.60;5.28;;;8.60;99.90;;;;;;5067159;28;20510;-76
2022/11/18 09:41:20;;;;;;;10.10;5.10;;;8.60;99.90;;;;;;5082255;28;20097;-76
2022/11/18 09:43:54;;;;;;;12.88;4.95;;;8.70;99.90;;;;;;5076354;28;20081;-75
2022/11/18 09:46:51;;;;;;;12.43;5.50;;;8.70;99.90;;;;;;5083831;28;20024;-75
2022/11/18 09:49:26;;;;;;;10.93;5.28;;;8.80;99.90;;;;;;5003219;28;20123;-75
2022/11/18 09:51:53;;;;;;;14.93;5.35;;;8.90;99.90;;;;;;5057131;28;20023;-74
2022/11/18 09:54:25;;;;;;;11.63;4.85;;;9.00;99.90;;;;;;5071746;28;20063;-75
2022/11/18 09:56:53;;;;;;;10.02;4.63;;;9.00;99.90;;;;;;5072325;28;20024;-74
2022/11/18 09:59:23;;;;;;;9.65;5.13;;;9.00;99.90;;;;;;5068636;28;20071;-76
2022/11/18 10:01:51;;;;;;;8.43;4.60;;;9.10;99.90;;;;;;5070088;28;20032;-76
2022/11/18 10:04:18;;;;;;;7.00;4.53;;;9.10;99.90;;;;;;5067951;28;20457;-76
2022/11/18 10:06:45;;;;;;;11.55;4.80;;;9.20;99.90;;;;;;5066643;28;20093;-75
2022/11/18 10:09:46;;;;;;;7.65;4.68;;;9.30;99.90;;;;;;5070391;28;20471;-74
2022/11/18 10:12:23;;;;;;;8.23;4.43;;;9.20;99.90;;;;;;5064338;28;20033;-75
2022/11/18 10:15:16;;;;;;;8.15;4.43;;;9.30;99.90;;;;;;5070603;28;20498;-75
2022/11/18 10:18:03;;;;;;;9.05;4.50;;;9.30;99.90;;;;;;5057724;28;20032;-77
2022/11/18 10:20:39;;;;;;;13.90;4.95;;;9.30;99.90;;;;;;5071427;28;20024;-76
2022/11/18 10:23:27;;;;;;;7.13;4.20;;;9.30;99.90;;;;;;5074570;28;20021;-75
2022/11/18 10:25:53;;;;;;;10.38;4.65;;;9.30;99.90;;;;;;5068736;28;20033;-76
2022/11/18 10:28:30;;;;;;;11.48;5.13;;;9.30;99.90;;;;;;5070150;28;20021;-74
2022/11/18 10:31:12;;;;;;;10.75;4.72;;;9.40;99.90;;;;;;5070378;28;20037;-74
2022/11/18 10:33:38;;;;;;;8.75;4.75;;;9.50;99.90;;;;;;5070678;28;20496;-75
2022/11/18 10:36:14;;;;;;;10.20;4.22;;;9.50;99.90;;;;;;5069903;28;20040;-75
2022/11/18 10:38:41;;;;;;;8.88;4.13;;;9.50;99.90;;;;;;5069881;28;20032;-74
2022/11/18 10:41:13;;;;;;;8.02;3.92;;;9.60;99.90;;;;;;5069549;28;20474;-75
2022/11/18 10:43:56;;;;;;;8.95;4.40;;;9.60;99.90;;;;;;5069858;28;20530;-75
2022/11/18 10:46:28;;;;;;;7.35;3.95;;;9.60;99.90;;;;;;5068781;28;20054;-74
2022/11/18 10:49:10;;;;;;;7.15;3.72;;;9.60;99.90;;;;;;5069124;28;20473;-75
2022/11/18 10:51:41;;;;;;;6.82;3.85;;;9.60;99.90;;;;;;5069587;28;20753;-75
2022/11/18 10:54:22;;;;;;;9.73;3.63;;;9.70;99.90;;;;;;5067331;28;20040;-76
2022/11/18 10:57:03;;;;;;;11.35;4.88;;;9.70;99.90;;;;;;5068054;28;20035;-74
2022/11/18 10:59:52;;;;;;;9.88;4.32;;;9.80;99.90;;;;;;5068904;28;20025;-75
2022/11/18 11:02:31;;;;;;;8.50;4.00;;;9.80;99.90;;;;;;5069382;28;20044;-75
2022/11/18 11:05:00;;;;;;;19.42;4.35;;;9.90;99.90;;;;;;5069204;28;20503;-74
2022/11/18 11:07:31;;;;;;;8.85;4.30;;;9.90;99.90;;;;;;5066797;28;20036;-75
2022/11/18 11:10:06;;;;;;;10.93;5.00;;;9.90;99.90;;;;;;5069955;28;20164;-74
2022/11/18 11:12:34;;;;;;;12.25;5.97;;;9.90;99.90;;;;;;5068720;28;20037;-75
2022/11/18 11:15:10;;;;;;;10.45;5.15;;;10.00;99.90;;;;;;5062736;28;20043;-74
2022/11/18 11:17:38;;;;;;;9.63;6.28;;;10.00;99.90;;;;;;5069696;28;20496;-74
2022/11/18 11:20:16;;;;;;;10.77;5.45;;;10.10;99.90;;;;;;5069998;28;20020;-74
2022/11/18 11:22:43;;;;;;;6.53;5.25;;;10.10;99.90;;;;;;5070144;28;20384;-75
2022/11/18 11:25:29;;;;;;;13.57;5.53;;;10.10;99.90;;;;;;5067254;28;20039;-75
2022/11/18 11:28:07;;;;;;;9.02;7.00;;;10.20;99.90;;;;;;5071122;28;20383;-74
2022/11/18 11:30:45;;;;;;;12.88;9.52;;;10.20;99.90;;;;;;5076144;28;20016;-75
2022/11/18 11:33:29;;;;;;;17.60;8.90;;;10.20;99.90;;;;;;5073013;28;20107;-74
2022/11/18 11:36:29;;;;;;;14.05;8.77;;;10.30;99.90;;;;;;5072299;28;20049;-74
2022/11/18 11:39:33;;;;;;;10.77;8.90;;;10.30;99.90;;;;;;5072507;28;20028;-74
2022/11/18 11:42:06;;;;;;;13.48;8.82;;;10.40;99.90;;;;;;5069431;28;20371;-75
2022/11/18 11:44:42;;;;;;;10.65;7.93;;;10.50;99.90;;;;;;5070416;28;20037;-75
2022/11/18 11:50:31;;;;;;;12.15;8.57;;;10.60;99.90;;;;;;5063192;28;20159;-76
2022/11/18 11:53:06;;;;;;;16.27;8.27;;;10.60;99.90;;;;;;5063939;28;20021;-76
2022/11/18 11:55:52;;;;;;;16.58;7.55;;;10.70;99.90;;;;;;5064436;28;20036;-75
2022/11/18 11:58:50;;;;;;;14.00;8.23;;;10.60;99.90;;;;;;5064434;28;20017;-76
2022/11/18 12:01:43;;;;;;;13.45;7.50;;;10.60;99.90;;;;;;5060428;28;20024;-76
2022/11/18 12:04:29;;;;;;;15.73;7.60;;;10.60;99.90;;;;;;5071732;28;20041;-76
2022/11/18 12:06:57;;;;;;;12.52;7.78;;;10.50;99.90;;;;;;5072879;28;20111;-75
2022/11/18 12:09:32;;;;;;;11.80;7.72;;;10.50;99.90;;;;;;5074234;28;20096;-76
2022/11/18 12:12:33;;;;;;;13.63;8.55;;;10.50;99.90;;;;;;5071740;28;20125;-74
2022/11/18 12:14:59;;;;;;;15.68;8.07;;;10.50;99.90;;;;;;5074263;28;20020;-76
2022/11/18 12:17:32;;;;;;;12.65;7.63;;;10.60;99.90;;;;;;5072114;28;20396;-76
2022/11/18 12:19:58;;;;;;;17.83;8.50;;;10.60;99.90;;;;;;5075173;28;20039;-74
2022/11/18 12:23:02;;;;;;;12.77;8.30;;;10.60;99.90;;;;;;5075452;28;20503;-75
2022/11/18 12:25:55;;;;;;;15.68;8.30;;;10.70;99.90;;;;;;5070079;28;20037;-75
2022/11/18 12:28:28;;;;;;;14.45;8.02;;;10.80;99.90;;;;;;5073281;28;20085;-72
2022/11/18 12:31:19;;;;;;;14.90;8.18;;;10.70;99.90;;;;;;5071566;28;20029;-74
2022/11/18 12:33:46;;;;;;;;;;;10.80;99.90;;;;;;5073358;28;20024;-75
2022/11/18 12:36:41;;;;;;;16.27;9.50;;;10.80;99.90;;;;;;5071101;28;19999;-77
2022/11/18 12:39:25;;;;;;;11.57;8.48;;;10.80;99.90;;;;;;5071044;28;20016;-75
2022/11/18 12:44:42;;;;;;;16.17;10.38;;;10.70;99.90;;;;;;5073655;28;20055;-75
2022/11/18 12:47:09;;;;;;;12.65;9.52;;;10.70;99.90;;;;;;5072044;28;20045;-75
2022/11/18 12:49:35;;;;;;;19.30;10.90;;;10.80;99.90;;;;;;5075237;28;20078;-75
2022/11/18 12:52:29;;;;;;;14.23;10.07;;;10.70;99.90;;;;;;5069604;28;20829;-74
2022/11/18 12:54:59;;;;;;;14.80;8.45;;;10.70;99.90;;;;;;5066186;28;20381;-74
2022/11/18 12:57:33;;;;;;;14.77;9.40;;;10.70;99.90;;;;;;5072406;28;20039;-75
2022/11/18 13:00:15;;;;;;;14.40;8.68;;;10.70;99.90;;;;;;5068936;28;20396;-75
2022/11/18 13:02:53;;;;;;;12.02;9.45;;;10.70;99.90;;;;;;5071443;28;20032;-75
2022/11/18 13:05:24;;;;;;;12.90;9.40;;;11.10;99.90;;;;;;5074358;28;20415;-75
2022/11/18 13:08:12;;;;;;;12.68;8.85;;;10.80;99.90;;;;;;5072934;28;20389;-75
2022/11/18 13:10:50;;;;;;;13.38;9.77;;;10.80;99.90;;;;;;5064173;28;20080;-75
2022/11/18 13:13:29;;;;;;;17.15;9.50;;;10.80;99.90;;;;;;5077479;28;20097;-76
2022/11/18 13:18:48;;;;;;;16.38;11.43;;;10.70;99.90;;;;;;5078304;28;20109;-74
2022/11/18 13:24:03;;;;;;;14.25;10.07;;;10.20;99.90;;;;;;5072074;28;20382;-75
2022/11/18 13:26:33;;;;;;;13.93;9.55;;;10.60;99.90;;;;;;5071505;28;20029;-74
2022/11/18 13:29:12;;;;;;;15.52;9.73;;;10.60;99.90;;;;;;5054851;28;20035;-75
2022/11/18 13:32:02;;;;;;;13.15;9.35;;;10.50;99.90;;;;;;5070824;28;20032;-74
2022/11/18 13:34:29;;;;;;;11.40;9.83;;;10.50;99.90;;;;;;5067947;28;20068;-73
2022/11/18 13:36:58;;;;;;;15.02;10.15;;;10.50;99.90;;;;;;5070555;28;20032;-74
2022/11/18 13:39:25;;;;;;;17.67;11.00;;;10.40;99.90;;;;;;5070569;28;20095;-75
2022/11/18 13:42:18;;;;;;;11.35;10.23;;;10.40;99.90;;;;;;5070147;28;20048;-75
2022/11/18 13:45:06;;;;;;;16.80;10.88;;;10.70;99.90;;;;;;5067965;28;20155;-75
2022/11/18 13:47:43;;;;;;;15.63;10.38;;;10.40;99.90;;;;;;5068047;28;20028;-75